Amman, Jordan

11:39 PM EEST on October 25, 2014 (GMT +0300)
Mars Mount | Change Station
CLOSE
Current Station
Personal Weather Station
Location: Amman, MARIKH
Elevation: 2953 ft
Nearby Weather Stations

Elev 2953 ft 31.93 °N, 35.92 °E | Updated 2 seconds ago

Haze
Haze
64.9 °F
Feels Like 64.9 °F
N
1.0
Wind Variable Wind from SW
Gusts 2.2 mph

Today
High -- | Low -- °F
--% Chance of Precip.
Yesterday
High -- | Low -- °F
Precip. -- in
6:46 AM 5:53 PM
Waxing Crescent, 4% visible
Pressure 30.06 in
Visibility 3.1 miles
Clouds
Dew Point 45 °F
Humidity 48%
Rainfall 0.00 in
Snow Depth Not available.
UV Not available.
Pollen Not available.
Air Quality Not available.
Flu Activity Not available.
METAR OJAM 252000Z 00000KT 5000 HZ NSC 19/05 Q1018 NOSIG

More Conditions Fewer Conditions

Pressure 30.06 in
Visibility 3.1 miles
Clouds
Dew Point 45 °F
Humidity 48%
Rainfall 0.00 in
Snow Depth Not available.
UV Not available.
Pollen Not available.
Air Quality Not available.
Flu Activity Not available.
METAR OJAM 252000Z 00000KT 5000 HZ NSC 19/05 Q1018 NOSIG

More Conditions Fewer Conditions

10-Day Weather Forecast

Almanac

Astronomy

Oct. 25, 2014 Rise Set
Actual Time 6:46 AM EEST 5:53 PM EEST
Civil Twilight 6:21 AM EEST 6:18 PM EEST
Nautical Twilight 5:53 AM EEST 6:46 PM EEST
Astronomical Twilight 5:24 AM EEST 7:15 PM EEST
Moon 8:01 AM EEST 7:04 PM EEST
Length of Visible Light 11h 56m
Length of Day
11h 06m
Tomorrow will be 1m 48s shorter.
Waxing Crescent, 4% of the Moon is Illuminated
Today
Waxing Crescent
Oct 30
First Quarter
Nov 6
Full
Nov 14
Last Quarter
Nov 22
New

Today's Extremes

Country Highs Country Lows

Community

WunderPhotos

Upload Photos

1,764,985 photos uploaded!

Nearby

Snow Depth

Not available.

Earthquake Activity

City Distance Mag. Time & Date
No recent earthquake activity has been reported nearby.
Minimum magnitude displayed is 2.5.

Coastal Water Temperatures

Place Temperature
No Stations Reporting

Nearby Weather Stations